Time;durP1;ratioP1;P1;durP2;ratioP2;P2;SDS_P1;SDS_P2;PMS_P1;PMS_P2;Temp;Humidity;BMP_temperature;BMP_pressure;BME280_temperature;BME280_humidity;BME280_pressure;Samples;Min_cycle;Max_cycle;Signal;HPM_P1;HPM_P2
2023/08/31 04:01:36;;;;;;;2.23;2.07;;;13.50;97.30;;;;;;5559525;23;20484;-67
2023/08/31 04:04:03;;;;;;;4.10;2.03;;;13.50;97.30;;;;;;4992695;28;20440;-67
2023/08/31 04:06:29;;;;;;;2.03;1.57;;;13.60;97.30;;;;;;4991309;28;20209;-67
2023/08/31 04:08:55;;;;;;;1.00;0.90;;;13.60;97.30;;;;;;4992378;28;20794;-67
2023/08/31 04:11:20;;;;;;;2.23;1.20;;;13.60;97.30;;;;;;4987639;28;20202;-66
2023/08/31 04:13:46;;;;;;;1.73;1.37;;;13.50;97.30;;;;;;4972324;28;20197;-67
2023/08/31 04:16:11;;;;;;;1.93;1.87;;;13.60;97.30;;;;;;4962927;28;20183;-67
2023/08/31 04:18:37;;;;;;;1.50;1.40;;;13.60;97.30;;;;;;4971496;28;20194;-66
2023/08/31 04:21:03;;;;;;;1.53;1.43;;;13.60;97.30;;;;;;4972405;28;20210;-67
2023/08/31 04:23:29;;;;;;;4.00;1.50;;;13.50;97.30;;;;;;4971483;28;20179;-67
2023/08/31 04:25:56;;;;;;;1.70;1.37;;;13.50;97.30;;;;;;4972163;28;20527;-67
2023/08/31 04:28:21;;;;;;;5.07;3.50;;;13.50;97.30;;;;;;4972092;28;20448;-64
2023/08/31 04:30:47;;;;;;;1.97;1.87;;;13.50;97.30;;;;;;4970957;28;20448;-67
2023/08/31 04:33:12;;;;;;;3.50;3.30;;;13.50;97.30;;;;;;4970929;28;20277;-67
2023/08/31 04:35:38;;;;;;;6.10;2.03;;;13.50;97.30;;;;;;4971315;28;20193;-66
2023/08/31 04:38:04;;;;;;;3.90;2.07;;;13.50;97.30;;;;;;4972078;28;20226;-67
2023/08/31 04:40:29;;;;;;;1.73;1.63;;;13.60;97.30;;;;;;4970154;28;20248;-66
2023/08/31 04:42:55;;;;;;;3.43;2.00;;;13.60;97.30;;;;;;4971278;28;20209;-66
2023/08/31 04:45:20;;;;;;;5.13;1.80;;;13.50;97.30;;;;;;4971182;28;20210;-66
2023/08/31 04:47:46;;;;;;;2.73;2.53;;;13.50;97.30;;;;;;4972699;28;20183;-68
2023/08/31 04:50:11;;;;;;;4.10;2.80;;;13.60;97.30;;;;;;4970958;28;20273;-67
2023/08/31 04:52:37;;;;;;;5.57;2.67;;;13.60;97.30;;;;;;4969668;28;20678;-67
2023/08/31 04:55:07;;;;;;;3.00;2.23;;;13.60;97.30;;;;;;4969616;28;20605;-67
2023/08/31 04:57:33;;;;;;;2.03;1.87;;;13.60;97.30;;;;;;4971043;28;20537;-68
2023/08/31 04:59:58;;;;;;;2.13;1.97;;;13.60;97.30;;;;;;4970233;28;20492;-67
2023/08/31 05:02:24;;;;;;;2.70;2.50;;;13.60;97.30;;;;;;4972086;28;20265;-65
2023/08/31 05:04:49;;;;;;;2.07;1.93;;;13.60;97.30;;;;;;4971503;28;20191;-65
2023/08/31 05:07:15;;;;;;;3.00;2.73;;;13.60;97.30;;;;;;4972124;28;20258;-65
2023/08/31 05:09:40;;;;;;;1.83;1.73;;;13.60;97.30;;;;;;4980282;28;20290;-65
2023/08/31 05:12:07;;;;;;;2.77;1.33;;;13.60;97.30;;;;;;4968162;28;20195;-65
2023/08/31 05:14:37;;;;;;;1.37;1.30;;;13.60;97.30;;;;;;4971255;28;20211;-66
2023/08/31 05:17:03;;;;;;;1.57;1.50;;;13.60;97.30;;;;;;4971164;28;20911;-66
2023/08/31 05:19:29;;;;;;;1.97;1.50;;;13.60;97.30;;;;;;4970781;28;20946;-66
2023/08/31 05:21:54;;;;;;;2.83;2.63;;;13.60;97.30;;;;;;4971891;28;20717;-65
2023/08/31 05:24:20;;;;;;;1.83;1.73;;;13.60;97.30;;;;;;4978279;28;20186;-65
2023/08/31 05:26:45;;;;;;;2.40;2.20;;;13.50;97.30;;;;;;4970287;28;20217;-66
2023/08/31 05:29:11;;;;;;;1.90;1.73;;;13.50;97.30;;;;;;4969938;28;20182;-66
2023/08/31 05:31:37;;;;;;;1.43;1.33;;;13.50;97.30;;;;;;4969875;28;20455;-65
2023/08/31 05:34:02;;;;;;;2.07;1.93;;;13.50;97.30;;;;;;4970292;28;20186;-65
2023/08/31 05:36:28;;;;;;;4.20;3.20;;;13.50;97.30;;;;;;4970179;28;20464;-65
2023/08/31 05:38:54;;;;;;;1.57;1.27;;;13.50;97.30;;;;;;4976639;28;20236;-66
2023/08/31 05:41:19;;;;;;;10.00;3.27;;;13.60;97.30;;;;;;4970488;28;20214;-66
2023/08/31 05:43:45;;;;;;;2.30;2.13;;;13.50;97.30;;;;;;4970619;28;20722;-66
2023/08/31 05:46:11;;;;;;;2.00;1.43;;;13.50;97.30;;;;;;4971248;28;20206;-65
2023/08/31 05:48:36;;;;;;;5.10;2.07;;;13.50;97.30;;;;;;4979558;28;20910;-66
2023/08/31 05:51:03;;;;;;;2.07;1.80;;;13.50;97.30;;;;;;4970256;28;20198;-67
2023/08/31 05:53:30;;;;;;;3.60;1.87;;;13.50;97.30;;;;;;4971227;28;20331;-66
2023/08/31 05:56:03;;;;;;;2.87;2.13;;;13.60;97.30;;;;;;4979303;28;20421;-66
2023/08/31 05:58:32;;;;;;;2.10;1.90;;;13.60;97.30;;;;;;4975812;28;20435;-66
2023/08/31 06:00:58;;;;;;;3.57;1.90;;;13.60;97.30;;;;;;4971981;28;20462;-66
2023/08/31 06:03:24;;;;;;;1.63;1.53;;;13.60;97.30;;;;;;4974572;28;20513;-65
2023/08/31 06:05:50;;;;;;;3.00;2.80;;;13.70;97.30;;;;;;4968304;28;20228;-63
2023/08/31 06:08:15;;;;;;;2.50;1.67;;;13.70;97.30;;;;;;4968488;28;20482;-66
2023/08/31 06:10:41;;;;;;;9.23;2.20;;;13.70;97.30;;;;;;4966870;28;20865;-68
2023/08/31 06:13:07;;;;;;;2.50;2.30;;;13.70;97.30;;;;;;4967331;28;20181;-66
2023/08/31 06:15:32;;;;;;;2.07;1.93;;;13.70;97.30;;;;;;4969696;28;20564;-64
2023/08/31 06:17:58;;;;;;;2.23;2.03;;;13.80;97.30;;;;;;4970371;28;20193;-66
2023/08/31 06:20:23;;;;;;;1.60;1.50;;;13.80;97.30;;;;;;4969316;28;20237;-67
2023/08/31 06:22:49;;;;;;;2.50;1.63;;;13.80;97.30;;;;;;4970573;28;20745;-66
2023/08/31 06:25:16;;;;;;;2.97;2.77;;;13.80;97.30;;;;;;4970396;28;20206;-66
2023/08/31 06:27:43;;;;;;;3.10;2.00;;;13.80;97.30;;;;;;4969251;28;20181;-66
2023/08/31 06:30:11;;;;;;;1.87;1.77;;;13.90;97.30;;;;;;4970772;28;20788;-65
2023/08/31 06:32:37;;;;;;;3.20;2.60;;;13.80;97.30;;;;;;4976424;28;20453;-66
2023/08/31 06:35:03;;;;;;;2.20;1.43;;;13.80;97.30;;;;;;4972632;28;20508;-67
2023/08/31 06:37:29;;;;;;;2.63;2.20;;;13.80;97.30;;;;;;4974074;28;20209;-62
2023/08/31 06:39:54;;;;;;;3.57;2.30;;;13.80;97.30;;;;;;4969048;28;20929;-66
2023/08/31 06:42:20;;;;;;;3.73;3.57;;;13.80;97.30;;;;;;4966840;28;20745;-67
2023/08/31 06:44:46;;;;;;;4.20;2.80;;;13.80;97.30;;;;;;4976428;28;20625;-61
2023/08/31 06:47:13;;;;;;;10.10;3.03;;;13.80;97.30;;;;;;4970126;28;20186;-68
2023/08/31 06:49:39;;;;;;;2.20;1.43;;;13.80;97.30;;;;;;4970365;28;20417;-66
2023/08/31 06:52:07;;;;;;;3.23;2.30;;;13.90;97.30;;;;;;4970023;28;20449;-62
2023/08/31 06:54:33;;;;;;;2.73;2.00;;;13.90;97.30;;;;;;4970085;28;20560;-64
2023/08/31 06:56:59;;;;;;;1.60;1.50;;;14.00;97.30;;;;;;4968601;28;20521;-66
2023/08/31 06:59:24;;;;;;;2.73;2.53;;;14.00;97.30;;;;;;4978566;28;20799;-68
2023/08/31 07:01:50;;;;;;;1.70;1.60;;;14.10;97.30;;;;;;4968725;28;20918;-67
2023/08/31 07:04:16;;;;;;;5.93;3.00;;;14.20;97.30;;;;;;4976486;28;20217;-67
2023/08/31 07:06:41;;;;;;;1.60;1.50;;;14.20;97.30;;;;;;4978012;28;20305;-68
2023/08/31 07:09:08;;;;;;;3.50;3.30;;;14.30;97.30;;;;;;4969568;28;20238;-68
2023/08/31 07:11:34;;;;;;;4.00;2.10;;;14.40;97.30;;;;;;4970276;28;20198;-68
2023/08/31 07:14:00;;;;;;;7.93;2.93;;;14.40;97.30;;;;;;4968756;28;20434;-66
2023/08/31 07:16:25;;;;;;;1.27;1.17;;;14.50;97.30;;;;;;4970448;28;20250;-66
2023/08/31 07:18:51;;;;;;;3.57;3.37;;;14.60;97.30;;;;;;4975662;28;20820;-68
2023/08/31 07:21:17;;;;;;;2.43;1.87;;;14.60;97.30;;;;;;4969467;28;20466;-65
2023/08/31 07:23:42;;;;;;;7.60;2.60;;;14.70;97.30;;;;;;4968403;28;20190;-65
2023/08/31 07:26:08;;;;;;;1.70;1.60;;;14.80;97.30;;;;;;4968372;28;20692;-66
2023/08/31 07:28:34;;;;;;;2.13;1.90;;;14.80;97.30;;;;;;4968164;28;20267;-66
2023/08/31 07:31:06;;;;;;;5.47;2.63;;;14.90;97.30;;;;;;4968372;28;20285;-68
2023/08/31 07:33:34;;;;;;;2.50;1.30;;;14.90;97.30;;;;;;4963158;28;20786;-67
2023/08/31 07:36:01;;;;;;;2.67;1.90;;;15.00;97.30;;;;;;4968394;28;20426;-65
2023/08/31 07:38:27;;;;;;;3.00;2.63;;;15.00;97.30;;;;;;4968152;28;20476;-65
2023/08/31 07:40:53;;;;;;;1.27;1.20;;;15.00;97.30;;;;;;4969563;28;20512;-67
2023/08/31 07:43:18;;;;;;;2.83;2.13;;;15.00;97.30;;;;;;4977472;28;20847;-66
2023/08/31 07:45:44;;;;;;;2.60;2.30;;;15.00;97.30;;;;;;4969725;28;20981;-67
2023/08/31 07:48:10;;;;;;;3.37;2.07;;;15.10;97.30;;;;;;4968803;28;20189;-66
2023/08/31 07:50:35;;;;;;;3.43;1.97;;;15.10;97.30;;;;;;4973304;28;20202;-68
2023/08/31 07:53:01;;;;;;;1.43;1.40;;;15.20;97.30;;;;;;4968967;28;20221;-67
2023/08/31 07:55:26;;;;;;;1.87;1.73;;;15.30;97.30;;;;;;4982573;28;20357;-64
2023/08/31 07:57:52;;;;;;;3.67;2.83;;;15.30;97.30;;;;;;4968057;28;20186;-64
2023/08/31 08:00:18;;;;;;;2.33;1.70;;;15.40;97.30;;;;;;4968791;28;20198;-67
2023/08/31 08:02:47;;;;;;;1.20;1.10;;;15.40;97.30;;;;;;4967574;28;20997;-67
2023/08/31 08:05:12;;;;;;;1.20;1.10;;;15.40;97.30;;;;;;4969304;28;20301;-64
2023/08/31 08:07:38;;;;;;;1.70;1.60;;;15.40;97.30;;;;;;4967726;28;20509;-67
2023/08/31 08:10:04;;;;;;;1.90;1.87;;;15.50;97.30;;;;;;4969088;28;20178;-67
2023/08/31 08:12:39;;;;;;;3.00;2.83;;;15.60;97.30;;;;;;4968163;28;20794;-66
2023/08/31 08:15:09;;;;;;;1.63;1.57;;;15.70;97.30;;;;;;4969213;28;20190;-64
2023/08/31 08:17:35;;;;;;;1.90;1.73;;;15.90;97.30;;;;;;4969588;28;20445;-67
2023/08/31 08:20:01;;;;;;;1.93;1.67;;;16.00;97.30;;;;;;4969242;28;20782;-68
2023/08/31 08:22:26;;;;;;;1.63;1.53;;;16.10;97.30;;;;;;4968140;28;20989;-68
2023/08/31 08:24:52;;;;;;;1.40;1.30;;;16.10;97.30;;;;;;4968886;28;20186;-67
2023/08/31 08:27:18;;;;;;;3.37;3.13;;;16.00;97.30;;;;;;4969841;28;20686;-66
2023/08/31 08:29:45;;;;;;;1.53;1.43;;;16.00;97.30;;;;;;4975681;28;20167;-65
2023/08/31 08:32:10;;;;;;;2.00;1.87;;;16.00;97.30;;;;;;4967797;28;20445;-68
2023/08/31 08:34:36;;;;;;;4.00;1.83;;;16.00;97.30;;;;;;4968877;28;20430;-67
2023/08/31 08:37:03;;;;;;;2.47;2.23;;;16.00;97.30;;;;;;4971023;28;20179;-67
2023/08/31 08:39:29;;;;;;;11.53;3.03;;;16.00;97.30;;;;;;4972518;28;20229;-65
2023/08/31 08:42:03;;;;;;;2.43;2.23;;;15.90;97.30;;;;;;4972786;28;20449;-67
2023/08/31 08:44:33;;;;;;;3.00;2.00;;;15.90;97.30;;;;;;4979091;28;20182;-69
2023/08/31 08:47:00;;;;;;;1.83;1.73;;;15.90;97.30;;;;;;4980510;28;20548;-68
2023/08/31 08:49:27;;;;;;;1.97;1.33;;;15.80;97.30;;;;;;4975346;28;21522;-68
2023/08/31 08:51:53;;;;;;;2.00;1.57;;;15.80;97.30;;;;;;4970974;28;20440;-67
2023/08/31 08:54:21;;;;;;;4.17;2.40;;;15.70;97.30;;;;;;4972325;28;20413;-67
2023/08/31 08:56:47;;;;;;;2.03;1.90;;;15.70;97.30;;;;;;4971293;28;20528;-68
2023/08/31 08:59:13;;;;;;;1.40;1.30;;;15.70;97.30;;;;;;4971841;28;20497;-67
2023/08/31 09:01:39;;;;;;;4.30;2.70;;;15.70;97.30;;;;;;4971099;28;20234;-68
2023/08/31 09:04:06;;;;;;;3.03;2.10;;;15.70;97.30;;;;;;4978156;28;20776;-67
2023/08/31 09:06:32;;;;;;;2.00;1.93;;;15.70;97.30;;;;;;4969339;28;20206;-67
2023/08/31 09:08:58;;;;;;;1.93;1.83;;;15.70;97.30;;;;;;4966573;28;20414;-66
2023/08/31 09:11:24;;;;;;;2.03;1.60;;;15.80;97.30;;;;;;4969291;28;20863;-67
2023/08/31 09:13:51;;;;;;;2.27;2.10;;;15.80;97.30;;;;;;4974118;28;20182;-68
2023/08/31 09:16:28;;;;;;;10.90;1.87;;;15.90;97.30;;;;;;4970542;28;20426;-66
2023/08/31 09:18:57;;;;;;;1.30;1.20;;;15.90;97.30;;;;;;4975274;28;20432;-61
2023/08/31 09:21:43;;;;;;;5.67;2.37;;;15.90;97.30;;;;;;4979732;28;20450;-67
2023/08/31 09:24:10;;;;;;;2.53;1.63;;;15.90;97.30;;;;;;4970210;28;20426;-67
2023/08/31 09:26:38;;;;;;;2.50;1.70;;;16.00;97.30;;;;;;4978532;28;20508;-68
2023/08/31 09:29:05;;;;;;;2.70;2.27;;;16.00;97.30;;;;;;4971970;28;20510;-66
2023/08/31 09:31:31;;;;;;;1.60;1.50;;;16.00;97.30;;;;;;4971419;28;20448;-66
2023/08/31 09:33:56;;;;;;;2.70;2.00;;;16.00;97.30;;;;;;4971724;28;20414;-67
2023/08/31 09:36:23;;;;;;;3.03;1.83;;;16.00;97.30;;;;;;4971472;28;20718;-67
2023/08/31 09:38:48;;;;;;;2.10;1.93;;;16.00;97.30;;;;;;4971647;28;20174;-64
2023/08/31 09:41:15;;;;;;;1.73;1.63;;;16.00;97.30;;;;;;4970301;28;20480;-64
2023/08/31 09:43:41;;;;;;;2.40;2.20;;;15.90;97.30;;;;;;4980259;28;20451;-62
2023/08/31 09:46:10;;;;;;;1.37;1.13;;;15.80;97.30;;;;;;4970180;28;20458;-71
2023/08/31 09:48:38;;;;;;;3.13;1.90;;;15.80;97.30;;;;;;4961979;28;20425;-67
2023/08/31 09:51:10;;;;;;;1.40;1.30;;;15.90;97.30;;;;;;4969888;28;20520;-73
2023/08/31 09:53:37;;;;;;;1.90;1.43;;;16.00;97.30;;;;;;4971303;28;20424;-65
2023/08/31 09:56:05;;;;;;;1.40;1.30;;;16.10;97.30;;;;;;4971256;28;20414;-65
2023/08/31 09:58:32;;;;;;;1.27;1.23;;;16.30;97.30;;;;;;4978016;28;20810;-64
2023/08/31 10:00:58;;;;;;;2.07;1.97;;;16.50;97.30;;;;;;4970895;28;20465;-63
2023/08/31 10:03:25;;;;;;;1.20;1.13;;;16.60;97.30;;;;;;4970981;28;20488;-65
2023/08/31 10:05:51;;;;;;;1.60;1.50;;;16.70;97.30;;;;;;4969681;28;20484;-66
2023/08/31 10:08:18;;;;;;;1.13;1.03;;;16.90;97.30;;;;;;4969604;28;20429;-64
2023/08/31 10:10:44;;;;;;;2.80;1.50;;;17.00;97.30;;;;;;4970896;28;20285;-65
2023/08/31 10:13:11;;;;;;;1.00;0.90;;;17.10;97.30;;;;;;4987510;23;20402;-88
2023/08/31 10:15:37;;;;;;;2.50;1.37;;;17.10;97.30;;;;;;4983680;28;20441;-88
2023/08/31 10:18:04;;;;;;;2.40;2.20;;;17.10;97.30;;;;;;4990615;28;20440;-87
2023/08/31 10:20:31;;;;;;;3.23;1.20;;;17.10;97.30;;;;;;4991199;28;20935;-90
2023/08/31 10:23:03;;;;;;;1.87;1.83;;;17.00;97.30;;;;;;4989957;28;20471;-88
2023/08/31 10:25:54;;;;;;;2.13;1.97;;;17.00;97.30;;;;;;4971165;28;20508;-90
2023/08/31 10:28:24;;;;;;;1.83;1.60;;;16.90;97.30;;;;;;4980894;28;20799;-90
2023/08/31 10:31:07;;;;;;;1.37;1.27;;;16.80;97.30;;;;;;4978658;28;20425;-89
2023/08/31 10:33:43;;;;;;;1.70;1.60;;;16.60;97.30;;;;;;4975684;28;20521;-89
2023/08/31 10:36:14;;;;;;;1.40;1.30;;;16.60;97.30;;;;;;4972995;28;20864;-89
2023/08/31 10:38:41;;;;;;;2.47;2.07;;;16.60;97.30;;;;;;4965229;28;20444;-89
2023/08/31 10:41:06;;;;;;;1.67;1.57;;;16.70;97.30;;;;;;4972937;28;20438;-89
2023/08/31 10:43:57;;;;;;;3.40;2.07;;;16.70;97.30;;;;;;4973025;28;20626;-90
2023/08/31 10:46:34;;;;;;;1.67;1.40;;;16.70;97.30;;;;;;4972655;28;20206;-89
2023/08/31 10:49:09;;;;;;;1.60;1.50;;;16.80;97.30;;;;;;4974067;28;20413;-90
2023/08/31 10:51:35;;;;;;;1.27;1.17;;;16.90;97.30;;;;;;4972414;28;20428;-89
2023/08/31 10:54:25;;;;;;;1.37;1.30;;;17.00;97.30;;;;;;4972838;28;20493;-90
2023/08/31 10:56:54;;;;;;;1.40;1.30;;;17.10;97.30;;;;;;4969343;28;20427;-90
2023/08/31 10:59:21;;;;;;;1.53;0.90;;;17.10;97.30;;;;;;4971497;28;20515;-90
2023/08/31 11:01:54;;;;;;;1.47;1.37;;;17.00;97.30;;;;;;4979923;28;20433;-88
2023/08/31 11:04:25;;;;;;;1.83;1.40;;;17.00;97.30;;;;;;4971689;28;20445;-88
2023/08/31 11:07:14;;;;;;;2.47;1.90;;;16.90;97.30;;;;;;4971702;28;20465;-90
2023/08/31 11:09:40;;;;;;;3.30;1.53;;;16.90;97.30;;;;;;4971471;28;20448;-90
2023/08/31 11:12:06;;;;;;;1.10;1.00;;;16.90;97.30;;;;;;4972019;28;20854;-88
2023/08/31 11:14:31;;;;;;;1.50;1.50;;;17.00;97.30;;;;;;4971265;28;20333;-90
2023/08/31 11:16:57;;;;;;;7.40;1.50;;;16.90;97.30;;;;;;4971870;28;20229;-89
2023/08/31 11:19:22;;;;;;;1.87;1.33;;;16.90;97.30;;;;;;4971830;28;20191;-89
2023/08/31 11:21:48;;;;;;;1.73;1.10;;;17.00;97.30;;;;;;4972094;28;20178;-89
2023/08/31 11:24:16;;;;;;;2.97;1.20;;;17.20;97.30;;;;;;4971867;28;20203;-90
2023/08/31 11:26:42;;;;;;;0.93;0.80;;;17.50;96.00;;;;;;4973036;28;20329;-89
2023/08/31 11:29:07;;;;;;;1.60;1.30;;;17.80;96.60;;;;;;4972655;28;20446;-90
2023/08/31 11:31:38;;;;;;;3.70;1.33;;;18.00;96.50;;;;;;4973896;28;20171;-89
2023/08/31 11:34:05;;;;;;;1.17;1.07;;;18.20;94.30;;;;;;4973164;28;20775;-89
2023/08/31 11:36:31;;;;;;;1.30;1.20;;;18.30;93.30;;;;;;4972856;28;20480;-90
2023/08/31 11:38:57;;;;;;;1.30;1.20;;;18.50;93.20;;;;;;4987697;28;20432;-89
2023/08/31 11:41:23;;;;;;;2.20;1.73;;;18.60;91.80;;;;;;4980120;28;20166;-91
2023/08/31 11:43:50;;;;;;;1.10;1.00;;;18.70;92.50;;;;;;4991053;28;20187;-90
2023/08/31 11:46:17;;;;;;;1.60;1.27;;;18.90;91.20;;;;;;4972155;28;20472;-89
2023/08/31 11:48:43;;;;;;;1.13;1.00;;;19.00;90.90;;;;;;4971634;28;20425;-89
2023/08/31 11:51:11;;;;;;;1.43;1.10;;;19.20;91.70;;;;;;4971269;28;20492;-89
2023/08/31 11:53:37;;;;;;;1.00;0.90;;;19.40;91.00;;;;;;4971322;28;20446;-91
2023/08/31 11:56:03;;;;;;;1.00;0.90;;;19.70;90.60;;;;;;4972725;28;20429;-89
2023/08/31 11:58:28;;;;;;;1.67;1.40;;;19.90;88.50;;;;;;4971521;28;20711;-89
2023/08/31 12:00:58;;;;;;;1.20;0.90;;;20.10;88.80;;;;;;4971038;28;20426;-90
2023/08/31 12:03:25;;;;;;;2.00;1.90;;;20.20;87.30;;;;;;4970928;28;20203;-89
2023/08/31 12:05:54;;;;;;;2.70;1.60;;;20.20;86.30;;;;;;4975229;28;20456;-89
2023/08/31 12:08:26;;;;;;;1.10;1.00;;;20.10;87.00;;;;;;4974706;28;20414;-89
2023/08/31 12:10:52;;;;;;;0.90;0.90;;;20.00;87.90;;;;;;4965762;28;20422;-90
2023/08/31 12:13:18;;;;;;;1.10;1.00;;;20.10;88.00;;;;;;4975226;28;20981;-88
2023/08/31 12:15:43;;;;;;;2.30;1.00;;;20.00;88.30;;;;;;4976480;28;20186;-88
2023/08/31 12:18:10;;;;;;;0.80;0.80;;;20.10;87.40;;;;;;4975120;28;20193;-89
2023/08/31 12:20:46;;;;;;;1.00;0.90;;;20.10;86.90;;;;;;4974788;28;20552;-89
2023/08/31 12:23:11;;;;;;;0.90;0.80;;;20.00;85.90;;;;;;4975114;28;20612;-89
2023/08/31 12:25:37;;;;;;;3.77;1.10;;;19.80;85.70;;;;;;4975699;28;20470;-89
2023/08/31 12:28:03;;;;;;;1.10;0.90;;;19.70;86.20;;;;;;4974695;28;20273;-88
2023/08/31 12:30:28;;;;;;;0.90;0.90;;;19.50;84.90;;;;;;4974838;28;20261;-88
2023/08/31 12:32:54;;;;;;;1.00;0.90;;;19.40;86.70;;;;;;4974293;28;20178;-88
2023/08/31 12:35:21;;;;;;;3.60;1.40;;;19.40;86.60;;;;;;4974976;28;20193;-88
2023/08/31 12:37:46;;;;;;;0.90;0.80;;;19.50;85.90;;;;;;4974404;28;20178;-89
2023/08/31 12:40:12;;;;;;;1.00;1.00;;;19.60;86.60;;;;;;4974844;28;20580;-88
2023/08/31 12:42:37;;;;;;;0.90;0.80;;;19.80;86.40;;;;;;4974565;28;20185;-89
2023/08/31 12:45:05;;;;;;;1.10;1.07;;;20.00;85.40;;;;;;4979921;28;20213;-89
2023/08/31 12:47:31;;;;;;;1.00;0.90;;;20.10;85.50;;;;;;4977777;28;20773;-89
2023/08/31 12:49:57;;;;;;;1.67;1.37;;;20.00;85.20;;;;;;4981139;28;20441;-88
2023/08/31 12:52:23;;;;;;;1.00;0.90;;;19.90;85.90;;;;;;4974107;28;20189;-89
2023/08/31 12:54:49;;;;;;;5.37;1.20;;;20.00;86.10;;;;;;4974637;28;20442;-89
2023/08/31 12:57:15;;;;;;;1.00;1.00;;;20.00;85.00;;;;;;4975234;28;20504;-89
2023/08/31 12:59:41;;;;;;;1.10;1.00;;;20.00;86.00;;;;;;4984836;28;20182;-89
2023/08/31 13:02:10;;;;;;;1.20;1.10;;;19.90;86.70;;;;;;4981111;28;20209;-88
2023/08/31 13:04:36;;;;;;;0.90;0.80;;;19.90;85.10;;;;;;4980441;28;20529;-88
2023/08/31 13:07:02;;;;;;;1.13;1.03;;;19.70;85.90;;;;;;4982464;28;20578;-88
2023/08/31 13:09:29;;;;;;;1.20;1.10;;;19.60;85.80;;;;;;4973721;28;20178;-89
2023/08/31 13:11:55;;;;;;;1.07;0.97;;;19.40;85.30;;;;;;4974245;28;20928;-87
2023/08/31 13:14:20;;;;;;;1.43;1.23;;;19.30;86.30;;;;;;4973703;28;20473;-88
2023/08/31 13:16:46;;;;;;;1.37;1.27;;;19.50;86.60;;;;;;4974211;28;20196;-89
2023/08/31 13:19:11;;;;;;;1.87;1.40;;;19.80;85.80;;;;;;4973437;28;20175;-90
2023/08/31 13:21:37;;;;;;;1.10;1.00;;;19.90;85.50;;;;;;4979215;28;20197;-89
2023/08/31 13:24:03;;;;;;;1.93;1.20;;;20.10;85.40;;;;;;4976800;28;20203;-87
2023/08/31 13:26:29;;;;;;;1.13;1.03;;;20.40;84.50;;;;;;4971356;28;20214;-87
2023/08/31 13:28:55;;;;;;;0.90;0.80;;;20.70;83.50;;;;;;4970919;28;20534;-87
2023/08/31 13:31:20;;;;;;;1.10;1.00;;;21.00;82.70;;;;;;4974585;28;20671;-90
2023/08/31 13:33:47;;;;;;;0.90;0.80;;;21.20;81.10;;;;;;4972879;28;20249;-85
2023/08/31 13:36:12;;;;;;;2.40;2.20;;;21.30;80.80;;;;;;4971827;28;20178;-87
2023/08/31 13:38:38;;;;;;;1.00;0.90;;;21.30;80.40;;;;;;4974621;28;20811;-87
2023/08/31 13:41:03;;;;;;;0.83;0.73;;;21.40;81.00;;;;;;4977679;28;20187;-88
2023/08/31 13:43:29;;;;;;;1.30;1.20;;;21.60;81.70;;;;;;4975933;28;20218;-87
2023/08/31 13:45:55;;;;;;;0.90;0.80;;;21.70;81.30;;;;;;4976772;28;20191;-88
2023/08/31 13:48:22;;;;;;;1.37;1.27;;;21.90;81.40;;;;;;4976638;28;20178;-87
2023/08/31 13:50:48;;;;;;;1.20;1.10;;;22.10;80.50;;;;;;4978290;28;20448;-87
2023/08/31 13:53:13;;;;;;;2.70;2.20;;;22.10;79.10;;;;;;4978229;28;20948;-86
2023/08/31 13:55:39;;;;;;;2.30;1.00;;;22.10;77.80;;;;;;4978444;28;20197;-86
2023/08/31 13:58:08;;;;;;;1.30;1.00;;;22.10;77.60;;;;;;4983104;28;20474;-85
2023/08/31 14:00:35;;;;;;;1.17;1.10;;;22.10;76.60;;;;;;4980779;28;20197;-85
2023/08/31 14:03:03;;;;;;;1.33;1.10;;;22.00;77.00;;;;;;4974331;28;20458;-85
2023/08/31 14:05:29;;;;;;;1.00;0.90;;;21.90;78.10;;;;;;4981507;28;20530;-85
2023/08/31 14:07:55;;;;;;;1.60;1.50;;;21.70;77.80;;;;;;4963535;28;20422;-88
2023/08/31 14:10:21;;;;;;;1.97;1.17;;;21.50;78.60;;;;;;4971353;28;20429;-87
2023/08/31 14:12:47;;;;;;;1.10;0.80;;;21.60;78.70;;;;;;4978436;28;20418;-86
2023/08/31 14:15:13;;;;;;;1.17;1.00;;;21.70;76.20;;;;;;4971822;28;20572;-87
2023/08/31 14:17:38;;;;;;;1.10;1.00;;;21.40;74.60;;;;;;4969004;28;20429;-87
2023/08/31 14:20:07;;;;;;;0.90;0.80;;;21.10;76.00;;;;;;4971331;28;20194;-85
2023/08/31 14:22:33;;;;;;;3.00;1.10;;;20.80;76.90;;;;;;4972495;28;20468;-86
2023/08/31 14:25:03;;;;;;;1.00;0.90;;;20.40;77.50;;;;;;4974488;28;20438;-85
2023/08/31 14:27:29;;;;;;;0.90;0.80;;;20.20;78.00;;;;;;4973030;28;20210;-86
2023/08/31 14:29:58;;;;;;;1.00;0.90;;;20.10;78.20;;;;;;4980230;28;20420;-85
2023/08/31 14:32:23;;;;;;;1.23;1.10;;;20.00;78.90;;;;;;4972128;28;20450;-89
2023/08/31 14:34:49;;;;;;;1.10;1.00;;;20.20;81.80;;;;;;4971631;28;21018;-88
2023/08/31 14:37:15;;;;;;;8.80;1.10;;;20.00;85.40;;;;;;4972404;28;20668;-86
2023/08/31 14:39:40;;;;;;;0.90;0.80;;;19.80;87.40;;;;;;4970637;28;20237;-85
2023/08/31 14:42:06;;;;;;;1.00;0.93;;;19.60;88.30;;;;;;4972502;28;20266;-85
2023/08/31 14:44:32;;;;;;;1.13;1.00;;;19.40;88.00;;;;;;4972021;28;20320;-86
2023/08/31 14:46:57;;;;;;;0.90;0.80;;;19.30;88.70;;;;;;4971830;28;20561;-87
2023/08/31 14:49:24;;;;;;;1.20;1.10;;;19.00;89.50;;;;;;4968491;28;20179;-86
2023/08/31 14:51:50;;;;;;;4.33;1.10;;;18.90;89.70;;;;;;4973392;28;20179;-87
2023/08/31 14:54:16;;;;;;;1.77;1.70;;;18.80;90.00;;;;;;4971758;28;20867;-86
2023/08/31 14:56:41;;;;;;;1.00;0.90;;;18.80;90.30;;;;;;4971784;28;20186;-87
2023/08/31 14:59:07;;;;;;;1.30;1.10;;;18.80;90.60;;;;;;4971901;28;20233;-87
2023/08/31 15:01:32;;;;;;;1.20;1.10;;;18.90;90.10;;;;;;4972156;28;20222;-86
2023/08/31 15:03:58;;;;;;;0.90;0.80;;;18.90;90.00;;;;;;4971439;28;20202;-87
2023/08/31 15:06:23;;;;;;;0.90;0.80;;;18.70;89.90;;;;;;4970227;28;20377;-86
2023/08/31 15:08:49;;;;;;;1.20;1.10;;;18.60;90.30;;;;;;4971605;28;20183;-87
2023/08/31 15:11:14;;;;;;;1.30;1.20;;;18.50;91.20;;;;;;4970275;28;20181;-86
2023/08/31 15:13:40;;;;;;;0.90;0.80;;;18.40;91.70;;;;;;4971433;28;20699;-87
2023/08/31 15:16:05;;;;;;;1.17;0.90;;;18.30;91.80;;;;;;4971096;28;20182;-87
2023/08/31 15:18:31;;;;;;;0.70;0.70;;;18.20;92.20;;;;;;4971113;28;20645;-87
2023/08/31 15:20:57;;;;;;;1.00;0.90;;;18.10;92.50;;;;;;4971013;28;20201;-87
2023/08/31 15:23:22;;;;;;;0.97;0.87;;;18.10;93.00;;;;;;4969500;28;20256;-87
2023/08/31 15:25:49;;;;;;;0.90;0.90;;;18.10;92.30;;;;;;4969572;28;20652;-87
2023/08/31 15:28:14;;;;;;;0.90;0.80;;;18.10;92.50;;;;;;4969380;28;20175;-87
2023/08/31 15:30:40;;;;;;;0.90;0.80;;;18.00;92.40;;;;;;4971076;28;20837;-87
2023/08/31 15:33:06;;;;;;;0.97;0.87;;;18.00;92.50;;;;;;4969010;28;20190;-86
2023/08/31 15:35:32;;;;;;;0.80;0.70;;;18.00;92.90;;;;;;4973173;28;20788;-87
2023/08/31 15:37:59;;;;;;;6.10;1.20;;;18.10;93.30;;;;;;4975260;28;20221;-86
2023/08/31 15:40:24;;;;;;;0.90;0.80;;;18.00;93.30;;;;;;4969540;28;20434;-87
2023/08/31 15:42:50;;;;;;;1.40;1.10;;;18.00;93.60;;;;;;4981488;28;21034;-86
2023/08/31 15:45:15;;;;;;;1.10;1.00;;;18.00;93.10;;;;;;4970414;28;20297;-86
2023/08/31 15:47:41;;;;;;;1.30;1.20;;;18.00;93.30;;;;;;4974452;28;20245;-86
2023/08/31 15:50:07;;;;;;;0.93;0.83;;;17.90;93.70;;;;;;4974768;28;20706;-86
2023/08/31 15:52:32;;;;;;;1.00;0.90;;;17.90;94.00;;;;;;4973417;28;20188;-86
2023/08/31 15:55:00;;;;;;;1.73;1.00;;;17.90;94.60;;;;;;4975357;28;20221;-86
2023/08/31 15:57:26;;;;;;;14.00;2.07;;;17.90;94.00;;;;;;4973324;28;20191;-87
2023/08/31 15:59:51;;;;;;;0.90;0.80;;;17.90;94.00;;;;;;4974102;28;20425;-84
2023/08/31 16:02:17;;;;;;;0.90;0.90;;;17.90;94.20;;;;;;4974447;28;20422;-86
2023/08/31 16:04:47;;;;;;;0.90;0.87;;;17.90;94.10;;;;;;4974022;28;20792;-87
2023/08/31 16:07:12;;;;;;;0.90;0.80;;;17.90;94.10;;;;;;4974826;28;20260;-86
2023/08/31 16:09:39;;;;;;;1.30;0.90;;;17.90;94.30;;;;;;4974395;28;20517;-85
2023/08/31 16:12:05;;;;;;;1.10;1.00;;;17.80;94.10;;;;;;4973870;28;20178;-86
2023/08/31 16:14:30;;;;;;;1.50;1.23;;;17.80;94.20;;;;;;4973480;28;20497;-86
2023/08/31 16:16:56;;;;;;;0.90;0.80;;;17.80;94.20;;;;;;4974587;28;20652;-86
2023/08/31 16:19:22;;;;;;;1.90;1.00;;;17.70;94.30;;;;;;4979269;28;20683;-86
2023/08/31 16:21:47;;;;;;;1.23;1.17;;;17.70;94.70;;;;;;4975634;28;20422;-86
2023/08/31 16:24:14;;;;;;;1.20;1.20;;;17.70;94.60;;;;;;4973978;28;20704;-86
2023/08/31 16:26:41;;;;;;;0.90;0.80;;;17.70;94.60;;;;;;4973806;28;20212;-85
2023/08/31 16:29:07;;;;;;;0.90;0.80;;;17.60;94.70;;;;;;4981975;28;20432;-86
2023/08/31 16:31:32;;;;;;;1.20;1.10;;;17.60;94.90;;;;;;4973644;28;20417;-86
2023/08/31 16:33:59;;;;;;;1.30;1.27;;;17.60;95.10;;;;;;4982033;28;20867;-86
2023/08/31 16:36:25;;;;;;;1.10;1.00;;;17.60;95.60;;;;;;4973521;28;20190;-86
2023/08/31 16:38:50;;;;;;;0.97;0.87;;;17.50;95.10;;;;;;4973371;28;20946;-86
2023/08/31 16:41:16;;;;;;;0.80;0.80;;;17.50;95.10;;;;;;4987926;28;20740;-86
2023/08/31 16:43:45;;;;;;;0.90;0.80;;;17.50;95.80;;;;;;4981452;28;20202;-86